createdAt,value
2023-04-02T00:05:19.688Z,97434.86
2023-04-02T00:10:59.337Z,97442.75
2023-04-02T00:16:23.913Z,97442.58
2023-04-02T00:21:46.838Z,97446.35
2023-04-02T00:27:13.354Z,97450.68
2023-04-02T00:32:36.644Z,97448.14
2023-04-02T00:37:58.322Z,97451.58
2023-04-02T00:43:21.106Z,97450.72
2023-04-02T00:48:58.344Z,97454.67
2023-04-02T00:54:22.073Z,97453.81
2023-04-02T00:59:53.280Z,97459.46
2023-04-02T01:05:15.162Z,97460.16
2023-04-02T01:11:02.528Z,97463.58
2023-04-02T01:16:31.156Z,97467.15
2023-04-02T01:22:07.051Z,97463.24
2023-04-02T01:27:33.958Z,97467.73
2023-04-02T01:32:56.823Z,97466.70
2023-04-02T01:38:25.931Z,97468.08
2023-04-02T01:44:06.636Z,97466.37
2023-04-02T01:49:28.766Z,97473.05
2023-04-02T01:54:51.796Z,97478.86
2023-04-02T02:00:15.153Z,97481.09
2023-04-02T02:05:38.868Z,97481.42
2023-04-02T02:11:01.954Z,97487.44
2023-04-02T02:16:24.367Z,97491.02
2023-04-02T02:21:50.734Z,97498.57
2023-04-02T02:27:22.248Z,97500.13
2023-04-02T02:33:02.099Z,97504.05
2023-04-02T02:38:49.655Z,97509.55
2023-04-02T02:44:21.558Z,97514.16
2023-04-02T02:49:46.657Z,97517.40
2023-04-02T02:55:13.654Z,97517.58
2023-04-02T03:00:43.861Z,97525.43
2023-04-02T03:06:09.303Z,97528.14
2023-04-02T03:11:39.047Z,97533.44
2023-04-02T03:17:06.705Z,97538.39
2023-04-02T03:22:35.476Z,97537.67
2023-04-02T03:28:07.605Z,97543.98
2023-04-02T03:33:38.902Z,97547.20
2023-04-02T03:39:25.807Z,97548.91
2023-04-02T03:44:59.891Z,97554.05
2023-04-02T03:50:29.398Z,97556.80
2023-04-02T03:55:53.073Z,97563.64
2023-04-02T04:01:20.726Z,97572.20
2023-04-02T04:06:44.859Z,97579.71
2023-04-02T04:12:27.017Z,97581.44
2023-04-02T04:18:06.082Z,97587.10
2023-04-02T04:23:41.141Z,97597.19
2023-04-02T04:29:38.237Z,97602.47
2023-04-02T04:35:24.189Z,97611.57
2023-04-02T04:40:52.480Z,97612.80
2023-04-02T04:46:41.554Z,97622.27
2023-04-02T04:52:21.262Z,97628.73
2023-04-02T04:57:43.393Z,97636.70
2023-04-02T05:03:22.580Z,97643.11
2023-04-02T05:08:48.332Z,97654.13
2023-04-02T05:14:45.475Z,97664.49
2023-04-02T05:20:16.473Z,97670.41
2023-04-02T05:25:51.813Z,97683.61
2023-04-02T05:31:21.614Z,97690.46
2023-04-02T05:36:46.698Z,97700.09
2023-04-02T05:42:16.473Z,97714.33
2023-04-02T05:47:47.265Z,97726.12
2023-04-02T05:53:37.858Z,97739.25
2023-04-02T05:59:16.345Z,97746.46
2023-04-02T06:04:47.510Z,97762.14
2023-04-02T06:10:18.374Z,97777.03
2023-04-02T06:15:40.196Z,97787.89
2023-04-02T06:21:12.716Z,97798.84
2023-04-02T06:26:43.527Z,97813.75
2023-04-02T06:32:12.390Z,97822.66
2023-04-02T06:37:39.726Z,97824.64
2023-04-02T06:43:27.476Z,97828.65
2023-04-02T06:49:01.517Z,97837.71
2023-04-02T06:54:23.245Z,97847.02
2023-04-02T06:59:49.651Z,97856.63
2023-04-02T07:05:14.890Z,97872.59
2023-04-02T07:10:41.576Z,97885.84
2023-04-02T07:16:03.748Z,97893.59
2023-04-02T07:21:29.145Z,97899.77
2023-04-02T07:26:51.678Z,97912.75
2023-04-02T07:32:13.918Z,97930.54
2023-04-02T07:37:38.447Z,97937.66
2023-04-02T07:43:00.877Z,97947.21
2023-04-02T07:48:24.114Z,97959.45
2023-04-02T07:53:50.464Z,97976.41
2023-04-02T07:59:12.086Z,97988.29
2023-04-02T08:04:34.201Z,97998.52
2023-04-02T08:09:56.174Z,98006.49
2023-04-02T08:15:18.877Z,98013.80
2023-04-02T08:20:40.920Z,98026.02
2023-04-02T08:26:05.760Z,98036.29
2023-04-02T08:31:27.806Z,98045.16
2023-04-02T08:36:49.808Z,98050.85
2023-04-02T08:42:50.174Z,98056.98
2023-04-02T08:48:12.976Z,98066.50
2023-04-02T08:53:38.064Z,98074.72
2023-04-02T08:59:04.201Z,98082.98
2023-04-02T09:04:27.250Z,98087.52
2023-04-02T09:09:50.075Z,98096.84
2023-04-02T09:15:14.323Z,98100.98
2023-04-02T09:20:36.523Z,98105.58
2023-04-02T09:26:04.033Z,98117.04
2023-04-02T09:31:36.782Z,98129.39
2023-04-02T09:37:25.598Z,98137.53
2023-04-02T09:42:47.193Z,98146.91
2023-04-02T09:48:25.532Z,98153.80
2023-04-02T09:53:52.227Z,98160.77
2023-04-02T09:59:14.160Z,98175.87
2023-04-02T10:04:44.821Z,98177.39
2023-04-02T10:10:26.284Z,98187.44
2023-04-02T10:16:01.214Z,98192.47
2023-04-02T10:21:28.133Z,98199.16
2023-04-02T10:27:11.865Z,98208.79
2023-04-02T10:32:38.057Z,98217.65
2023-04-02T10:38:21.774Z,98223.61
2023-04-02T10:43:48.538Z,98232.09
2023-04-02T10:49:34.809Z,98235.16
2023-04-02T10:55:01.190Z,98240.48
2023-04-02T11:00:29.157Z,98251.63
2023-04-02T11:05:53.491Z,98260.62
2023-04-02T11:11:23.365Z,98268.23
2023-04-02T11:16:45.739Z,98274.92
2023-04-02T11:22:18.747Z,98277.08
2023-04-02T11:27:40.772Z,98288.70
2023-04-02T11:33:34.031Z,98297.05
2023-04-02T11:39:07.355Z,98302.73
2023-04-02T11:44:37.110Z,98311.06
2023-04-02T11:50:01.640Z,98308.98
2023-04-02T11:55:30.859Z,98308.83
2023-04-02T12:01:35.817Z,98314.02
2023-04-02T12:07:22.326Z,98318.88
2023-04-02T12:12:44.519Z,98322.77
2023-04-02T12:18:23.776Z,98327.91
2023-04-02T12:23:47.629Z,98334.05
2023-04-02T12:29:19.544Z,98336.66
2023-04-02T12:34:45.777Z,98345.96
2023-04-02T12:40:17.448Z,98346.86
2023-04-02T12:45:38.880Z,98347.91
2023-04-02T12:51:02.020Z,98356.09
2023-04-02T12:56:24.291Z,98364.36
2023-04-02T13:02:01.008Z,98369.45
2023-04-02T13:07:25.966Z,98377.09
2023-04-02T13:12:47.897Z,98384.45
2023-04-02T13:18:12.344Z,98385.65
2023-04-02T13:23:37.240Z,98385.04
2023-04-02T13:29:02.118Z,98393.04
2023-04-02T13:34:24.245Z,98401.75
2023-04-02T13:39:45.806Z,98414.07
2023-04-02T13:45:19.113Z,98418.83
2023-04-02T13:50:41.582Z,98424.65
2023-04-02T13:56:03.954Z,98429.95
2023-04-02T14:01:26.117Z,98434.77
2023-04-02T14:07:03.058Z,98431.02
2023-04-02T14:12:35.064Z,98438.45
2023-04-02T14:18:31.629Z,98449.67
2023-04-02T14:24:16.740Z,98460.72
2023-04-02T14:29:54.428Z,98466.89
2023-04-02T14:35:36.064Z,98466.85
2023-04-02T14:41:11.662Z,98478.59
2023-04-02T14:46:37.716Z,98482.02
2023-04-02T14:52:04.677Z,98487.34
2023-04-02T14:57:31.069Z,98493.11
2023-04-02T15:03:04.166Z,98494.24
2023-04-02T15:08:41.188Z,98497.86
2023-04-02T15:14:25.697Z,98502.02
2023-04-02T15:19:47.634Z,98509.80
2023-04-02T15:25:34.049Z,98514.01
2023-04-02T15:30:58.967Z,98519.77
2023-04-02T15:36:38.871Z,98530.39
2023-04-02T15:42:13.747Z,98538.28
2023-04-02T15:48:11.137Z,98547.50
2023-04-02T15:54:01.714Z,98552.33
2023-04-02T15:59:48.646Z,98560.30
2023-04-02T16:05:50.431Z,98563.95
2023-04-02T16:11:14.553Z,98570.34
2023-04-02T16:16:37.190Z,98579.29
2023-04-02T16:22:06.317Z,98586.14
2023-04-02T16:27:42.542Z,98596.39
2023-04-02T16:33:23.040Z,98606.02
2023-04-02T16:38:57.412Z,98611.05
2023-04-02T16:44:31.974Z,98615.19
2023-04-02T16:50:27.710Z,98620.82
2023-04-02T16:55:58.873Z,98626.62
2023-04-02T17:01:33.321Z,98627.29
2023-04-02T17:07:15.911Z,98634.63
2023-04-02T17:12:46.614Z,98641.35
2023-04-02T17:18:20.939Z,98647.67
2023-04-02T17:24:17.473Z,98656.59
2023-04-02T17:29:42.482Z,98662.33
2023-04-02T17:35:22.317Z,98667.90
2023-04-02T17:41:07.144Z,98674.93
2023-04-02T17:46:39.223Z,98679.27
2023-04-02T17:52:42.635Z,98683.52
2023-04-02T17:58:26.619Z,98689.81
2023-04-02T18:03:57.385Z,98699.64
2023-04-02T18:09:30.953Z,98703.52
2023-04-02T18:15:24.905Z,98710.86
2023-04-02T18:21:16.928Z,98713.29
2023-04-02T18:26:53.829Z,98715.74
2023-04-02T18:32:33.746Z,98722.08
2023-04-02T18:38:04.758Z,98731.41
2023-04-02T18:43:33.946Z,98737.57
2023-04-02T18:48:59.667Z,98740.51
2023-04-02T18:54:35.718Z,98739.63
2023-04-02T19:00:02.227Z,98751.58
2023-04-02T19:05:40.834Z,98754.48
2023-04-02T19:11:22.275Z,98757.70
2023-04-02T19:17:05.273Z,98760.90
2023-04-02T19:23:22.392Z,98766.02
2023-04-02T19:29:12.655Z,98774.66
2023-04-02T19:34:42.924Z,98778.00
2023-04-02T19:40:24.686Z,98782.80
2023-04-02T19:45:48.495Z,98785.09
2023-04-02T19:51:10.245Z,98787.98
2023-04-02T19:56:32.876Z,98788.30
2023-04-02T20:01:54.303Z,98791.44
2023-04-02T20:07:16.034Z,98797.90
2023-04-02T20:12:37.847Z,98795.79
2023-04-02T20:18:00.755Z,98794.57
2023-04-02T20:23:22.826Z,98799.46
2023-04-02T20:28:44.758Z,98806.49
2023-04-02T20:34:08.590Z,98809.36
2023-04-02T20:39:30.522Z,98814.69
2023-04-02T20:44:52.558Z,98817.76
2023-04-02T20:50:14.281Z,98820.89
2023-04-02T20:55:36.414Z,98821.95
2023-04-02T21:01:16.364Z,98829.25
2023-04-02T21:06:39.425Z,98832.17
2023-04-02T21:12:01.480Z,98839.02
2023-04-02T21:17:23.635Z,98838.36
2023-04-02T21:22:44.967Z,98838.27
2023-04-02T21:28:07.357Z,98838.77
2023-04-02T21:33:29.588Z,98846.06
2023-04-02T21:38:53.719Z,98852.97
2023-04-02T21:44:16.262Z,98856.81
2023-04-02T21:49:38.181Z,98862.48
2023-04-02T21:55:00.310Z,98872.16
2023-04-02T22:00:22.946Z,98884.43
2023-04-02T22:05:44.873Z,98885.13
2023-04-02T22:11:18.957Z,98889.35
2023-04-02T22:16:41.717Z,98891.95
2023-04-02T22:22:03.807Z,98895.91
2023-04-02T22:27:25.439Z,98902.89
2023-04-02T22:32:47.341Z,98907.33
2023-04-02T22:38:09.392Z,98910.25
2023-04-02T22:43:32.400Z,98908.92
2023-04-02T22:48:55.877Z,98914.52
2023-04-02T22:54:17.692Z,98916.25
2023-04-02T22:59:39.815Z,98920.38
2023-04-02T23:05:01.900Z,98921.86
2023-04-02T23:10:23.886Z,98922.64
2023-04-02T23:15:51.041Z,98926.90
2023-04-02T23:21:13.056Z,98928.42
2023-04-02T23:26:34.587Z,98928.77
2023-04-02T23:31:56.698Z,98928.08
2023-04-02T23:37:18.665Z,98928.81
2023-04-02T23:42:43.572Z,98928.73
2023-04-02T23:48:05.734Z,98930.48
2023-04-02T23:53:27.543Z,98931.84
2023-04-02T23:58:50.480Z,98931.49
